Česky Dansk Deutsch English Español Suomi Français Magyar Italiano Nederlands norsk Polski Português svenska Türkçe

 

Het Weer

Vitebsk (Wit Rusland)

16:00, 19 augustus 2016 (GMT)

NWNNE
WE
SWSSE
Home            
Vitebsk Velikie Luki Minsk Loshitsa / Minsk International 1 Gomel' Vilnius Brjansk Tver Kaunas Tartu/Ulenurme Riga Riga International Airport Grodno Siauliai Intl./Mil. Moscow / Vnukovo Moscow / Sheremet'Ye Moscow / Domodedovo Parnu Hostomel Kyiv St. Peterburg Brest Boryspil

Om een weerknop op uw website of weblog te plaatsen, copieer onderstaande code en plak die in uw pagina. In het eerste vakje staat HTML-code, in het tweede vakje UBB-code.


Add to Google

Details

Wind speed:2 bf, 3.9 kn, 2 m/s, 4.5 miles/h, 7.2 km/h
Wind direction:ENE, 060°
Visibility:Greater than 10000 m, 10 km, 32800 ft, 6.2 miles
Clouds:Durchbrochene Bewölkung at 2800 ft, 853 m
Temperature:19°C, 66°F
Dew-point:17°C, 63°F
Atmospheric pressure:1016 hPa, 762.1 mmHg, 30.00 inHg, 1.003 atm
Relative humidity:88.2 %
METAR:UMII 191600Z 06002MPS 9999 BKN028CB 19/17 Q1016 R05/190062 NOSIG

Snelkoppelingen

Actuele weersinformatie van de hele wereld. Voeg locaties toe met het plus (+) symbool. Deze snelkoppelingen kunnen worden toegevoegd aan Google.

Lid van de Technetium groep

website free tracking
StatCounter NetStat W3C Validator

27-10-2020 12:53:37
astro.technetium.be money.technetium.be phote.technetium.be tafeltennistafel.technetium.be www.ligfiets.net